This is the latest recevied weather packets stored in our database for station/object YO8RBY-2. If no packets are shown the sender has not sent any weather packets the latest 10 day(s).
| Time | Temp. | Humidity | Pressure | Rain* | Wind** | Luminosity | Snow |
|---|---|---|---|---|---|---|---|
| 1777714056 | 15.56° C | 39% | 981 hPa | - | - | 0 W/m² | - |
| 1777712233 | 15.56° C | 39% | 981 hPa | - | - | 0 W/m² | - |
| 1777710409 | 15.56° C | 39% | 981 hPa | - | - | 0 W/m² | - |
| 1777708583 | 17.22° C | 37% | 981 hPa | - | - | 0 W/m² | - |
| 1777706757 | 15.56° C | 40% | 981 hPa | - | - | 0 W/m² | - |
| 1777704934 | 13.89° C | 44% | 981 hPa | - | - | 0 W/m² | - |
| 1777703112 | 13.89° C | 47% | 981 hPa | - | - | 0 W/m² | - |
| 1777701290 | 12.78° C | 51% | 981 hPa | - | - | 0 W/m² | - |
| 1777699458 | 11.67° C | 52% | 981 hPa | - | - | 0 W/m² | - |
| 1777697634 | 10.56° C | 54% | 981 hPa | - | - | 0 W/m² | - |
| 1777695810 | 10.56° C | 54% | 981 hPa | - | - | 0 W/m² | - |
| 1777693986 | 10° C | 54% | 981 hPa | - | - | 0 W/m² | - |
| 1777692167 | 10° C | 55% | 980 hPa | - | - | 0 W/m² | - |
| 1777684869 | 10° C | 53% | 981 hPa | - | - | 0 W/m² | - |
| 1777681276 | 10° C | 54% | 981 hPa | - | - | 0 W/m² | - |
| 1777679403 | 10° C | 52% | 981 hPa | - | - | 0 W/m² | - |
| 1777677569 | 10° C | 52% | 981 hPa | - | - | 0 W/m² | - |
| 1777675744 | 10.56° C | 49% | 981 hPa | - | - | 0 W/m² | - |
| 1777673921 | 11.11° C | 49% | 981 hPa | - | - | 0 W/m² | - |
| 1777672102 | 12.22° C | 41% | 981 hPa | - | - | 0 W/m² | - |
| 1777670274 | 12.22° C | 39% | 981 hPa | - | - | 0 W/m² | - |
| 1777668450 | 12.78° C | 36% | 981 hPa | - | - | 0 W/m² | - |
| 1777666625 | 12.78° C | 35% | 981 hPa | - | - | 0 W/m² | - |
| 1777664799 | 12.78° C | 34% | 981 hPa | - | - | 0 W/m² | - |
| 1777662962 | 12.78° C | 32% | 981 hPa | - | - | 0 W/m² | - |
* Rain since midnight (hover to see other rain measurements)
** Current wind speed in m/s (hover to see current wind gust speed)